createdAt,value
2023-04-18T00:01:57.602Z,58.30
2023-04-18T00:04:26.486Z,60.60
2023-04-18T00:06:56.421Z,60.23
2023-04-18T00:09:25.716Z,58.30
2023-04-18T00:11:54.050Z,65.30
2023-04-18T00:14:23.160Z,60.20
2023-04-18T00:16:51.704Z,61.73
2023-04-18T00:19:20.176Z,64.07
2023-04-18T00:21:49.523Z,58.57
2023-04-18T00:24:19.820Z,56.67
2023-04-18T00:26:48.928Z,61.40
2023-04-18T00:29:17.200Z,59.53
2023-04-18T00:31:45.567Z,55.40
2023-04-18T00:34:14.007Z,57.20
2023-04-18T00:36:42.543Z,58.77
2023-04-18T00:39:10.823Z,49.27
2023-04-18T00:41:40.461Z,53.40
2023-04-18T00:44:08.774Z,49.17
2023-04-18T00:46:37.896Z,50.70
2023-04-18T00:49:06.855Z,56.70
2023-04-18T00:51:36.188Z,48.83
2023-04-18T00:54:07.607Z,48.60
2023-04-18T00:56:36.758Z,49.17
2023-04-18T00:59:06.598Z,48.30
2023-04-18T01:01:34.862Z,47.70
2023-04-18T01:04:03.584Z,46.60
2023-04-18T01:06:32.043Z,51.00
2023-04-18T01:09:02.260Z,44.70
2023-04-18T01:11:30.585Z,45.53
2023-04-18T01:14:02.574Z,45.50
2023-04-18T01:16:33.793Z,49.90
2023-04-18T01:19:02.396Z,44.30
2023-04-18T01:21:31.417Z,43.67
2023-04-18T01:24:03.661Z,48.00
2023-04-18T01:26:33.285Z,40.87
2023-04-18T01:29:01.683Z,43.53
2023-04-18T01:31:31.607Z,42.80
2023-04-18T01:33:59.845Z,44.03
2023-04-18T01:36:28.303Z,44.70
2023-04-18T01:38:57.061Z,45.07
2023-04-18T01:41:25.513Z,44.57
2023-04-18T01:43:55.152Z,43.63
2023-04-18T01:46:23.510Z,37.10
2023-04-18T01:48:51.771Z,40.70
2023-04-18T01:51:22.134Z,44.60
2023-04-18T01:53:50.731Z,42.70
2023-04-18T01:56:19.140Z,37.23
2023-04-18T01:58:47.393Z,46.23
2023-04-18T02:01:17.207Z,50.93
2023-04-18T02:03:45.768Z,48.53
2023-04-18T02:06:14.322Z,50.07
2023-04-18T02:08:42.544Z,46.83
2023-04-18T02:11:10.827Z,47.40
2023-04-18T02:13:39.338Z,46.23
2023-04-18T02:16:13.464Z,49.23
2023-04-18T02:18:45.480Z,43.10
2023-04-18T02:21:15.221Z,44.93
2023-04-18T02:23:43.526Z,45.90
2023-04-18T02:26:11.893Z,44.20
2023-04-18T02:28:40.146Z,48.60
2023-04-18T02:31:14.509Z,44.70
2023-04-18T02:33:45.160Z,50.03
2023-04-18T02:36:14.368Z,47.70
2023-04-18T02:38:44.999Z,42.77
2023-04-18T02:41:17.450Z,42.80
2023-04-18T02:43:45.907Z,47.47
2023-04-18T02:46:17.850Z,44.77
2023-04-18T02:48:50.565Z,49.03
2023-04-18T02:51:24.066Z,49.57
2023-04-18T02:53:55.055Z,43.70
2023-04-18T02:56:24.434Z,43.40
2023-04-18T02:59:24.867Z,41.03
2023-04-18T03:02:16.403Z,37.33
2023-04-18T03:04:53.225Z,40.17
2023-04-18T03:07:21.966Z,38.80
2023-04-18T03:09:52.345Z,40.57
2023-04-18T03:12:26.044Z,36.50
2023-04-18T03:14:54.972Z,34.50
2023-04-18T03:17:24.188Z,37.40
2023-04-18T03:19:55.157Z,38.73
2023-04-18T03:22:24.999Z,34.90
2023-04-18T03:25:00.049Z,29.80
2023-04-18T03:27:43.679Z,33.43
2023-04-18T03:30:14.466Z,33.50
2023-04-18T03:32:46.642Z,34.17
2023-04-18T03:35:16.581Z,29.97
2023-04-18T03:37:44.971Z,30.97
2023-04-18T03:40:20.149Z,33.50
2023-04-18T03:42:50.821Z,30.63
2023-04-18T03:45:19.182Z,31.57
2023-04-18T03:47:48.631Z,32.13
2023-04-18T03:50:19.422Z,35.93
2023-04-18T03:52:49.730Z,32.97
2023-04-18T03:55:19.644Z,29.30
2023-04-18T03:57:48.410Z,30.60
2023-04-18T04:00:24.891Z,32.37
2023-04-18T04:03:00.590Z,28.83
2023-04-18T04:05:31.474Z,28.23
2023-04-18T04:08:00.410Z,31.97
2023-04-18T04:10:28.716Z,30.80
2023-04-18T04:12:56.987Z,30.33
2023-04-18T04:15:25.380Z,28.37
2023-04-18T04:18:03.294Z,26.53
2023-04-18T04:20:34.355Z,27.17
2023-04-18T04:23:10.741Z,25.90
2023-04-18T04:25:40.970Z,24.77
2023-04-18T04:28:22.717Z,26.90
2023-04-18T04:30:59.932Z,27.43
2023-04-18T04:33:29.480Z,25.70
2023-04-18T04:36:03.183Z,23.83
2023-04-18T04:38:34.442Z,26.73
2023-04-18T04:41:03.340Z,27.57
2023-04-18T04:43:32.269Z,25.30
2023-04-18T04:46:01.001Z,25.57
2023-04-18T04:48:29.314Z,28.43
2023-04-18T04:50:59.507Z,24.03
2023-04-18T04:53:31.418Z,23.03
2023-04-18T04:56:01.881Z,22.03
2023-04-18T04:58:30.291Z,24.40
2023-04-18T05:01:09.131Z,23.20
2023-04-18T05:03:53.915Z,25.73
2023-04-18T05:06:22.786Z,22.10
2023-04-18T05:08:52.462Z,21.47
2023-04-18T05:11:21.092Z,22.73
2023-04-18T05:13:49.394Z,21.07
2023-04-18T05:16:17.967Z,19.67
2023-04-18T05:18:46.278Z,24.23
2023-04-18T05:21:14.546Z,22.10
2023-04-18T05:23:42.799Z,25.57
2023-04-18T05:26:12.410Z,18.90
2023-04-18T05:28:41.464Z,23.13
2023-04-18T05:31:09.756Z,22.60
2023-04-18T05:33:38.069Z,21.30
2023-04-18T05:36:07.699Z,25.40
2023-04-18T05:38:35.982Z,21.07
2023-04-18T05:41:04.182Z,18.80
2023-04-18T05:43:33.802Z,19.80
2023-04-18T05:46:02.088Z,20.27
2023-04-18T05:48:30.415Z,18.53
2023-04-18T05:50:58.717Z,19.93
2023-04-18T05:53:26.923Z,20.40
2023-04-18T05:55:56.692Z,17.80
2023-04-18T05:58:24.948Z,17.37
2023-04-18T06:00:55.401Z,19.40
2023-04-18T06:03:24.036Z,18.87
2023-04-18T06:05:52.535Z,18.20
2023-04-18T06:08:20.796Z,18.50
2023-04-18T06:10:49.009Z,15.53
2023-04-18T06:13:17.303Z,16.60
2023-04-18T06:15:45.629Z,20.30
2023-04-18T06:18:15.364Z,17.70
2023-04-18T06:20:45.337Z,17.27
2023-04-18T06:23:13.685Z,15.27
2023-04-18T06:25:42.763Z,17.27
2023-04-18T06:28:11.197Z,14.27
2023-04-18T06:30:39.442Z,20.43
2023-04-18T06:33:10.408Z,17.83
2023-04-18T06:35:40.236Z,19.43
2023-04-18T06:38:08.837Z,16.50
2023-04-18T06:40:37.040Z,16.50
2023-04-18T06:43:05.324Z,15.47
2023-04-18T06:45:33.868Z,15.40
2023-04-18T06:48:04.463Z,14.83
2023-04-18T06:50:32.938Z,14.73
2023-04-18T06:53:02.608Z,14.97
2023-04-18T06:55:30.968Z,15.97
2023-04-18T06:58:00.484Z,15.57
2023-04-18T07:00:28.869Z,14.60
2023-04-18T07:02:57.194Z,14.03
2023-04-18T07:05:25.658Z,15.80
2023-04-18T07:07:53.875Z,13.60
2023-04-18T07:10:23.537Z,14.33
2023-04-18T07:12:51.811Z,14.33
2023-04-18T07:15:20.033Z,15.53
2023-04-18T07:17:48.617Z,16.20
2023-04-18T07:20:17.237Z,12.97
2023-04-18T07:22:45.977Z,15.13
2023-04-18T07:25:14.222Z,15.30
2023-04-18T07:27:43.839Z,13.43
2023-04-18T07:30:12.915Z,16.10
2023-04-18T07:32:41.326Z,13.77
2023-04-18T07:35:10.386Z,14.03
2023-04-18T07:37:38.683Z,14.33
2023-04-18T07:40:08.376Z,15.37
2023-04-18T07:42:36.601Z,15.20
2023-04-18T07:45:07.459Z,14.00
2023-04-18T07:47:35.743Z,12.30
2023-04-18T07:50:04.892Z,15.73
2023-04-18T07:52:33.144Z,15.07
2023-04-18T07:55:01.383Z,15.17
2023-04-18T07:57:29.603Z,15.67
2023-04-18T07:59:57.896Z,17.57
2023-04-18T08:02:27.573Z,14.10
2023-04-18T08:04:56.292Z,13.87
2023-04-18T08:07:24.689Z,15.27
2023-04-18T08:09:52.956Z,14.00
2023-04-18T08:12:21.238Z,16.00
2023-04-18T08:14:49.577Z,13.93
2023-04-18T08:17:17.889Z,13.43
2023-04-18T08:19:47.618Z,13.30
2023-04-18T08:22:15.884Z,15.00
2023-04-18T08:25:01.178Z,15.63
2023-04-18T08:27:30.658Z,16.43
2023-04-18T08:29:58.930Z,17.60
2023-04-18T08:32:27.240Z,15.10
2023-04-18T08:34:57.222Z,15.77
2023-04-18T08:37:27.833Z,15.30
2023-04-18T08:39:56.114Z,15.67
2023-04-18T08:42:24.694Z,15.67
2023-04-18T08:44:54.028Z,16.63
2023-04-18T08:47:22.390Z,17.80
2023-04-18T08:49:52.223Z,15.93
2023-04-18T08:52:23.762Z,17.77
2023-04-18T08:54:52.504Z,16.67
2023-04-18T08:57:26.770Z,17.40
2023-04-18T08:59:55.621Z,18.90
2023-04-18T09:02:38.963Z,15.27
2023-04-18T09:05:12.503Z,17.37
2023-04-18T09:07:42.824Z,18.83
2023-04-18T09:10:12.684Z,19.90
2023-04-18T09:12:50.307Z,16.60
2023-04-18T09:15:23.248Z,16.33
2023-04-18T09:17:53.962Z,18.37
2023-04-18T09:20:35.874Z,18.07
2023-04-18T09:23:10.391Z,16.93
2023-04-18T09:25:45.252Z,16.00
2023-04-18T09:28:24.668Z,15.70
2023-04-18T09:30:53.774Z,18.47
2023-04-18T09:33:28.380Z,16.83
2023-04-18T09:35:57.182Z,17.33
2023-04-18T09:41:22.490Z,17.33
2023-04-18T09:43:52.214Z,16.80
2023-04-18T09:46:22.629Z,17.20
2023-04-18T09:48:51.016Z,18.70
2023-04-18T09:51:19.491Z,17.40
2023-04-18T09:53:50.279Z,16.97
2023-04-18T09:56:25.604Z,16.47
2023-04-18T09:58:58.263Z,17.50
2023-04-18T10:01:28.975Z,17.43
2023-04-18T10:03:58.745Z,22.77
2023-04-18T10:06:28.608Z,19.67
2023-04-18T10:08:57.225Z,18.90
2023-04-18T10:11:27.310Z,18.50
2023-04-18T10:13:59.640Z,20.43
2023-04-18T10:16:29.387Z,20.60
2023-04-18T10:18:58.379Z,17.87
2023-04-18T10:21:29.739Z,20.07
2023-04-18T10:23:57.970Z,20.57
2023-04-18T10:26:50.278Z,20.30
2023-04-18T10:29:18.831Z,21.43
2023-04-18T10:31:48.220Z,21.73
2023-04-18T10:34:19.711Z,22.70
2023-04-18T10:37:06.202Z,21.70
2023-04-18T10:39:49.797Z,21.10
2023-04-18T10:42:19.609Z,19.20
2023-04-18T10:45:21.243Z,20.30
2023-04-18T10:47:49.843Z,19.53
2023-04-18T10:50:18.687Z,20.25
2023-04-18T10:52:47.002Z,19.70
2023-04-18T10:55:19.202Z,20.65
2023-04-18T10:57:50.612Z,18.70
2023-04-18T11:00:21.632Z,18.00
2023-04-18T11:02:52.873Z,20.90
2023-04-18T11:05:23.132Z,19.00
2023-04-18T11:07:51.858Z,17.93
2023-04-18T11:10:22.658Z,15.68
2023-04-18T11:12:52.930Z,17.55
2023-04-18T11:15:22.637Z,17.10
2023-04-18T11:18:01.649Z,17.00
2023-04-18T11:20:30.571Z,18.13
2023-04-18T11:22:59.739Z,15.53
2023-04-18T11:25:30.320Z,15.40
2023-04-18T11:28:02.287Z,14.37
2023-04-18T11:30:37.899Z,15.00
2023-04-18T11:33:08.346Z,16.50
2023-04-18T11:35:38.739Z,17.40
2023-04-18T11:38:07.695Z,17.47
2023-04-18T11:40:36.967Z,18.17
2023-04-18T11:43:08.145Z,17.37
2023-04-18T11:45:38.154Z,17.13
2023-04-18T11:48:06.539Z,17.87
2023-04-18T11:50:38.264Z,18.60
2023-04-18T11:53:06.615Z,18.17
2023-04-18T11:55:34.872Z,15.87
2023-04-18T11:58:03.369Z,18.13
2023-04-18T12:00:35.495Z,19.13
2023-04-18T12:03:05.657Z,18.27
2023-04-18T12:05:35.877Z,16.80
2023-04-18T12:08:09.145Z,18.93
2023-04-18T12:10:37.712Z,16.63
2023-04-18T12:13:08.839Z,15.93
2023-04-18T12:15:41.724Z,17.50
2023-04-18T12:18:10.105Z,15.30
2023-04-18T12:20:46.522Z,13.88
2023-04-18T12:23:30.857Z,14.70
2023-04-18T12:26:03.774Z,15.23
2023-04-18T12:28:32.771Z,13.25
2023-04-18T12:31:02.543Z,13.95
2023-04-18T12:33:31.828Z,14.97
2023-04-18T12:36:00.603Z,13.93
2023-04-18T12:38:28.930Z,14.32
2023-04-18T12:40:57.191Z,15.43
2023-04-18T12:43:25.722Z,15.00
2023-04-18T12:45:54.230Z,13.17
2023-04-18T12:48:23.872Z,14.57
2023-04-18T12:50:52.190Z,13.65
2023-04-18T12:53:20.419Z,12.85
2023-04-18T12:55:48.668Z,13.48
2023-04-18T12:58:18.759Z,14.37
2023-04-18T13:00:47.243Z,10.43
2023-04-18T13:03:15.743Z,11.60
2023-04-18T13:05:45.494Z,10.90
2023-04-18T13:08:17.776Z,13.27
2023-04-18T13:10:47.485Z,11.77
2023-04-18T13:13:15.902Z,11.80
2023-04-18T13:15:44.227Z,11.20
2023-04-18T13:18:12.571Z,10.77
2023-04-18T13:20:40.838Z,9.77
2023-04-18T13:23:10.499Z,10.80
2023-04-18T13:25:38.790Z,11.03
2023-04-18T13:28:07.025Z,11.47
2023-04-18T13:30:35.870Z,11.50
2023-04-18T13:33:04.374Z,11.70
2023-04-18T13:35:32.761Z,10.85
2023-04-18T13:38:00.994Z,12.38
2023-04-18T13:40:30.719Z,13.18
2023-04-18T13:42:58.982Z,12.35
2023-04-18T13:45:27.512Z,12.40
2023-04-18T13:47:56.085Z,11.65
2023-04-18T13:50:24.506Z,12.68
2023-04-18T13:52:54.666Z,12.93
2023-04-18T13:55:23.130Z,12.98
2023-04-18T13:57:52.772Z,13.10
2023-04-18T14:00:21.665Z,13.60
2023-04-18T14:02:51.025Z,13.48
2023-04-18T14:05:19.799Z,14.43
2023-04-18T14:07:48.840Z,13.25
2023-04-18T14:10:17.086Z,14.00
2023-04-18T14:12:45.348Z,13.65
2023-04-18T14:15:14.964Z,14.18
2023-04-18T14:17:45.498Z,14.07
2023-04-18T14:20:15.687Z,16.42
2023-04-18T14:22:44.064Z,13.48
2023-04-18T14:25:12.603Z,15.02
2023-04-18T14:27:40.853Z,14.10
2023-04-18T14:30:10.906Z,13.63
2023-04-18T14:32:40.707Z,15.02
2023-04-18T14:35:11.102Z,15.77
2023-04-18T14:37:39.320Z,16.38
2023-04-18T14:40:09.694Z,14.88
2023-04-18T14:42:38.825Z,14.27
2023-04-18T14:45:08.445Z,17.52
2023-04-18T14:47:39.045Z,16.30
2023-04-18T14:50:11.890Z,15.68
2023-04-18T14:52:40.848Z,16.85
2023-04-18T14:55:10.826Z,18.38
2023-04-18T14:57:39.887Z,18.45
2023-04-18T15:00:12.580Z,16.13
2023-04-18T15:02:41.305Z,17.45
2023-04-18T15:05:12.216Z,18.55
2023-04-18T15:07:42.151Z,17.42
2023-04-18T15:10:12.706Z,17.90
2023-04-18T15:12:41.717Z,17.48
2023-04-18T15:15:10.660Z,16.75
2023-04-18T15:17:39.008Z,14.90
2023-04-18T15:20:08.450Z,18.50
2023-04-18T15:22:38.149Z,17.30
2023-04-18T15:25:07.711Z,18.70
2023-04-18T15:27:35.954Z,17.55
2023-04-18T15:30:04.183Z,16.45
2023-04-18T15:32:33.065Z,16.27
2023-04-18T15:35:01.363Z,14.25
2023-04-18T15:37:29.610Z,14.88
2023-04-18T15:39:59.239Z,16.60
2023-04-18T15:42:28.072Z,16.38
2023-04-18T15:44:56.348Z,17.38
2023-04-18T15:47:24.666Z,17.13
2023-04-18T15:49:53.339Z,17.35
2023-04-18T15:52:21.677Z,16.23
2023-04-18T15:54:51.989Z,16.55
2023-04-18T15:57:22.155Z,17.52
2023-04-18T15:59:50.423Z,19.13
2023-04-18T16:02:18.872Z,20.60
2023-04-18T16:04:47.453Z,20.35
2023-04-18T16:07:16.048Z,20.50
2023-04-18T16:09:44.286Z,18.30
2023-04-18T16:12:12.601Z,20.38
2023-04-18T16:14:42.277Z,27.75
2023-04-18T16:17:10.588Z,21.77
2023-04-18T16:19:40.963Z,20.33
2023-04-18T16:22:10.566Z,19.20
2023-04-18T16:24:41.531Z,20.30
2023-04-18T16:27:10.403Z,19.35
2023-04-18T16:29:38.726Z,19.27
2023-04-18T16:32:08.472Z,19.27
2023-04-18T16:34:36.832Z,19.02
2023-04-18T16:37:05.154Z,19.67
2023-04-18T16:39:33.494Z,20.73
2023-04-18T16:42:02.909Z,21.70
2023-04-18T16:44:33.006Z,22.63
2023-04-18T16:47:01.375Z,20.30
2023-04-18T16:49:31.095Z,23.33
2023-04-18T16:51:59.313Z,22.20
2023-04-18T16:54:27.751Z,20.00
2023-04-18T16:56:56.032Z,20.03
2023-04-18T16:59:24.260Z,21.80
2023-04-18T17:01:52.531Z,22.42
2023-04-18T17:04:21.167Z,19.87
2023-04-18T17:06:52.164Z,20.67
2023-04-18T17:09:20.751Z,21.63
2023-04-18T17:11:48.977Z,20.13
2023-04-18T17:14:18.284Z,22.37
2023-04-18T17:16:46.576Z,21.23
2023-04-18T17:19:15.066Z,21.67
2023-04-18T17:21:44.047Z,23.13
2023-04-18T17:24:14.343Z,20.67
2023-04-18T17:26:42.901Z,22.23
2023-04-18T17:29:12.219Z,23.43
2023-04-18T17:31:40.777Z,22.77
2023-04-18T17:34:09.150Z,22.10
2023-04-18T17:36:37.399Z,25.27
2023-04-18T17:39:06.571Z,24.00
2023-04-18T17:41:38.866Z,22.53
2023-04-18T17:44:08.385Z,22.63
2023-04-18T17:46:37.178Z,21.80
2023-04-18T17:49:05.709Z,23.50
2023-04-18T17:51:34.240Z,23.50
2023-04-18T17:54:02.513Z,23.03
2023-04-18T17:56:31.592Z,23.53
2023-04-18T17:59:01.238Z,23.30
2023-04-18T18:01:30.491Z,25.33
2023-04-18T18:03:58.967Z,25.67
2023-04-18T18:06:28.404Z,25.77
2023-04-18T18:08:56.791Z,23.40
2023-04-18T18:11:25.154Z,23.53
2023-04-18T18:13:55.485Z,27.17
2023-04-18T18:16:25.363Z,23.80
2023-04-18T18:18:53.859Z,25.97
2023-04-18T18:21:22.380Z,23.37
2023-04-18T18:23:50.682Z,25.43
2023-04-18T18:26:18.934Z,24.50
2023-04-18T18:28:47.287Z,22.70
2023-04-18T18:31:15.624Z,25.67
2023-04-18T18:33:45.302Z,23.77
2023-04-18T18:36:13.619Z,26.87
2023-04-18T18:38:42.084Z,25.67
2023-04-18T18:41:10.380Z,25.77
2023-04-18T18:43:38.985Z,23.47
2023-04-18T18:46:07.322Z,26.30
2023-04-18T18:48:38.101Z,22.17
2023-04-18T18:51:08.352Z,23.33
2023-04-18T18:53:37.786Z,22.87
2023-04-18T18:56:08.735Z,27.33
2023-04-18T18:58:37.304Z,24.97
2023-04-18T19:01:05.963Z,25.00
2023-04-18T19:03:34.833Z,28.80
2023-04-18T19:06:04.261Z,27.10
2023-04-18T19:08:34.359Z,26.70
2023-04-18T19:11:02.880Z,26.10
2023-04-18T19:13:31.265Z,25.10
2023-04-18T19:15:59.855Z,25.23
2023-04-18T19:18:28.201Z,27.07
2023-04-18T19:20:56.534Z,24.47
2023-04-18T19:23:25.361Z,25.97
2023-04-18T19:25:55.158Z,26.03
2023-04-18T19:28:23.687Z,23.47
2023-04-18T19:30:53.153Z,24.73
2023-04-18T19:33:24.253Z,24.37
2023-04-18T19:35:52.766Z,29.10
2023-04-18T19:38:21.398Z,32.63
2023-04-18T19:40:49.755Z,25.63
2023-04-18T19:43:19.578Z,25.83
2023-04-18T19:45:48.009Z,28.43
2023-04-18T19:48:16.393Z,29.27
2023-04-18T19:50:44.740Z,26.37
2023-04-18T19:53:13.029Z,28.63
2023-04-18T19:55:41.762Z,28.50
2023-04-18T19:58:10.060Z,25.67
2023-04-18T20:00:40.673Z,24.47
2023-04-18T20:03:09.437Z,27.43
2023-04-18T20:05:37.975Z,28.67
2023-04-18T20:08:06.826Z,24.50
2023-04-18T20:10:37.268Z,27.13
2023-04-18T20:13:05.593Z,26.03
2023-04-18T20:15:33.955Z,26.50
2023-04-18T20:18:03.823Z,26.03
2023-04-18T20:20:32.103Z,24.80
2023-04-18T20:23:00.407Z,26.37
2023-04-18T20:25:28.719Z,25.10
2023-04-18T20:27:57.051Z,25.63
2023-04-18T20:30:25.824Z,24.63
2023-04-18T20:32:54.427Z,25.03
2023-04-18T20:35:24.263Z,25.50
2023-04-18T20:37:52.591Z,24.20
2023-04-18T20:40:21.497Z,23.40
2023-04-18T20:42:49.731Z,23.70
2023-04-18T20:45:18.192Z,21.03
2023-04-18T20:47:46.528Z,23.33
2023-04-18T20:50:16.207Z,24.00
2023-04-18T20:52:45.925Z,27.40
2023-04-18T20:55:14.342Z,23.10
2023-04-18T20:57:42.692Z,23.70
2023-04-18T21:00:13.859Z,19.17
2023-04-18T21:02:42.481Z,25.13
2023-04-18T21:05:11.063Z,24.60
2023-04-18T21:07:39.430Z,25.23
2023-04-18T21:10:09.955Z,24.70
2023-04-18T21:12:38.206Z,23.03
2023-04-18T21:15:07.499Z,24.60
2023-04-18T21:17:35.816Z,21.77
2023-04-18T21:20:04.165Z,21.77
2023-04-18T21:22:32.375Z,23.87
2023-04-18T21:25:00.602Z,23.07
2023-04-18T21:27:31.697Z,23.67
2023-04-18T21:30:00.625Z,22.97
2023-04-18T21:32:29.837Z,23.47
2023-04-18T21:34:58.141Z,23.87
2023-04-18T21:37:26.615Z,21.70
2023-04-18T21:39:55.106Z,22.20
2023-04-18T21:42:23.369Z,23.93
2023-04-18T21:44:54.761Z,22.20
2023-04-18T21:47:23.154Z,22.13
2023-04-18T21:49:51.654Z,22.47
2023-04-18T21:52:19.970Z,22.57
2023-04-18T21:54:48.199Z,21.27
2023-04-18T21:57:16.708Z,22.30
2023-04-18T21:59:45.046Z,23.90
2023-04-18T22:02:14.737Z,23.33
2023-04-18T22:04:44.257Z,23.63
2023-04-18T22:07:12.583Z,22.00
2023-04-18T22:09:40.942Z,22.40
2023-04-18T22:12:09.514Z,23.10
2023-04-18T22:14:38.140Z,22.60
2023-04-18T22:17:06.566Z,25.83
2023-04-18T22:19:36.290Z,23.20
2023-04-18T22:22:04.761Z,24.43
2023-04-18T22:24:32.994Z,20.87
2023-04-18T22:27:02.841Z,23.87
2023-04-18T22:29:31.105Z,21.60
2023-04-18T22:31:59.377Z,25.37
2023-04-18T22:34:27.624Z,24.93
2023-04-18T22:36:57.203Z,23.80
2023-04-18T22:39:26.048Z,25.37
2023-04-18T22:41:54.257Z,27.00
2023-04-18T22:44:22.483Z,27.73
2023-04-18T22:46:54.505Z,25.47
2023-04-18T22:49:23.303Z,26.10
2023-04-18T22:51:54.379Z,26.67
2023-04-18T22:54:24.214Z,25.63
2023-04-18T22:56:53.397Z,26.20
2023-04-18T22:59:21.948Z,24.90
2023-04-18T23:01:50.268Z,23.97
2023-04-18T23:04:18.846Z,27.10
2023-04-18T23:06:47.542Z,24.33
2023-04-18T23:09:19.548Z,23.87
2023-04-18T23:11:49.236Z,27.77
2023-04-18T23:14:17.612Z,23.37
2023-04-18T23:16:46.030Z,24.80
2023-04-18T23:19:14.313Z,23.97
2023-04-18T23:21:42.853Z,26.07
2023-04-18T23:24:12.251Z,24.00
2023-04-18T23:26:40.744Z,23.97
2023-04-18T23:29:10.381Z,24.30
2023-04-18T23:31:38.701Z,23.47
2023-04-18T23:34:06.985Z,24.07
2023-04-18T23:36:35.374Z,23.60
2023-04-18T23:39:04.274Z,22.30
2023-04-18T23:41:32.581Z,24.30
2023-04-18T23:44:01.213Z,26.00
2023-04-18T23:46:31.075Z,24.87
2023-04-18T23:48:59.476Z,23.43
2023-04-18T23:51:28.011Z,26.27
2023-04-18T23:53:56.303Z,22.50
2023-04-18T23:56:24.577Z,24.83
2023-04-18T23:58:53.883Z,25.33
